Time;durP1;ratioP1;P1;durP2;ratioP2;P2;SDS_P1;SDS_P2;PMS_P1;PMS_P2;Temp;Humidity;BMP_temperature;BMP_pressure;BME280_temperature;BME280_humidity;BME280_pressure;Samples;Min_cycle;Max_cycle;Signal;HPM_P1;HPM_P2
2021/06/20 00:01:25;;;;;;;10.30;9.50;;;24.00;99.90;;;;;;5049585;28;20739;-84
2021/06/20 00:03:51;;;;;;;10.63;9.53;;;24.00;99.90;;;;;;5047153;28;20635;-84
2021/06/20 00:06:26;;;;;;;14.70;9.93;;;24.10;99.90;;;;;;5052734;28;20971;-84
2021/06/20 00:08:55;;;;;;;11.53;10.20;;;24.10;99.90;;;;;;5056410;28;21143;-84
2021/06/20 00:11:22;;;;;;;10.20;9.40;;;24.00;99.90;;;;;;5057977;28;20661;-84
2021/06/20 00:13:50;;;;;;;10.37;8.43;;;23.90;99.90;;;;;;5055279;28;21232;-84
2021/06/20 00:16:17;;;;;;;11.93;9.60;;;24.00;99.90;;;;;;5051647;28;20626;-84
2021/06/20 00:18:44;;;;;;;10.77;9.77;;;24.00;99.90;;;;;;5048675;28;20653;-84
2021/06/20 00:21:10;;;;;;;10.20;9.40;;;24.00;99.90;;;;;;5056920;28;20657;-83
2021/06/20 00:23:37;;;;;;;12.40;10.03;;;24.10;99.90;;;;;;5062264;28;20629;-84
2021/06/20 00:26:04;;;;;;;9.23;8.50;;;24.00;99.90;;;;;;5057424;28;21114;-84
2021/06/20 00:28:31;;;;;;;10.47;8.40;;;24.00;99.90;;;;;;5054240;28;20632;-84
2021/06/20 00:31:00;;;;;;;9.90;8.90;;;24.00;99.90;;;;;;5051890;28;20699;-83
2021/06/20 00:33:27;;;;;;;9.80;9.00;;;23.90;99.90;;;;;;5053471;28;21342;-84
2021/06/20 00:35:55;;;;;;;9.60;8.70;;;23.90;99.90;;;;;;5056161;28;20629;-84
2021/06/20 00:38:21;;;;;;;11.63;9.20;;;23.90;99.90;;;;;;5055236;28;20645;-84
2021/06/20 00:40:48;;;;;;;8.87;8.10;;;24.00;99.90;;;;;;5055660;28;20648;-84
2021/06/20 00:43:15;;;;;;;9.50;8.73;;;23.90;99.90;;;;;;5056222;28;20631;-83
2021/06/20 00:45:42;;;;;;;11.23;8.70;;;23.80;99.90;;;;;;5055488;28;20630;-83
2021/06/20 00:48:10;;;;;;;10.73;9.83;;;23.80;99.90;;;;;;5053407;28;21199;-84
2021/06/20 00:50:37;;;;;;;10.13;9.43;;;23.90;99.90;;;;;;5059623;28;21123;-85
2021/06/20 00:53:05;;;;;;;9.27;7.80;;;24.10;99.90;;;;;;5054702;28;21094;-86
2021/06/20 00:55:37;;;;;;;9.03;8.20;;;24.10;99.90;;;;;;5056798;28;20661;-85
2021/06/20 00:58:05;;;;;;;10.90;8.57;;;24.00;99.90;;;;;;5053773;28;20623;-85
2021/06/20 01:00:33;;;;;;;9.67;8.60;;;23.90;99.90;;;;;;5052309;28;20625;-83
2021/06/20 01:03:00;;;;;;;8.83;8.00;;;24.00;99.90;;;;;;5056643;28;20625;-84
2021/06/20 01:05:29;;;;;;;12.03;8.30;;;24.10;99.90;;;;;;5058929;28;20617;-84
2021/06/20 01:07:56;;;;;;;10.20;8.90;;;24.10;99.90;;;;;;5058105;28;20629;-85
2021/06/20 01:10:25;;;;;;;15.93;8.80;;;24.50;99.90;;;;;;5051562;28;20644;-85
2021/06/20 01:12:52;;;;;;;25.63;9.80;;;24.70;99.90;;;;;;5051019;28;20684;-85
2021/06/20 01:15:19;;;;;;;15.73;7.87;;;25.10;99.90;;;;;;5051188;28;20617;-85
2021/06/20 01:17:46;;;;;;;30.03;11.03;;;25.50;99.90;;;;;;5051759;28;20637;-84
2021/06/20 01:20:15;;;;;;;28.53;9.90;;;25.70;99.90;;;;;;5057514;28;20626;-84
2021/06/20 01:22:45;;;;;;;34.13;9.67;;;25.90;99.90;;;;;;5050226;28;20609;-84
2021/06/20 01:25:15;;;;;;;20.73;9.67;;;26.00;99.90;;;;;;5051192;28;20629;-84
2021/06/20 01:27:44;;;;;;;31.67;9.93;;;26.00;99.90;;;;;;5049839;28;20637;-84
2021/06/20 01:30:16;;;;;;;25.33;8.67;;;25.90;99.90;;;;;;5049506;28;20618;-84
2021/06/20 01:32:44;;;;;;;21.77;8.30;;;25.90;99.90;;;;;;5049810;28;20661;-84
2021/06/20 01:35:12;;;;;;;25.50;8.80;;;26.00;99.90;;;;;;5052058;28;20641;-85
2021/06/20 01:37:39;;;;;;;31.07;8.30;;;26.10;99.90;;;;;;5049951;28;20749;-84
2021/06/20 01:40:10;;;;;;;23.03;7.67;;;26.00;99.90;;;;;;5050238;28;20633;-85
2021/06/20 01:42:36;;;;;;;30.50;8.90;;;26.00;99.90;;;;;;5051681;28;21530;-85
2021/06/20 01:45:05;;;;;;;24.97;9.10;;;26.10;99.90;;;;;;5048884;28;20743;-84
2021/06/20 01:47:32;;;;;;;26.90;8.03;;;26.20;99.70;;;;;;5050316;28;20632;-85
2021/06/20 01:50:00;;;;;;;25.90;8.63;;;26.30;99.60;;;;;;5053054;28;20624;-85
2021/06/20 01:52:28;;;;;;;31.13;9.57;;;26.10;99.80;;;;;;5048424;28;21291;-84
2021/06/20 01:54:56;;;;;;;24.40;8.40;;;26.10;99.70;;;;;;5050779;28;20632;-85
2021/06/20 01:57:26;;;;;;;25.43;8.47;;;26.10;99.70;;;;;;5051449;28;20622;-85
2021/06/20 01:59:53;;;;;;;30.93;10.53;;;26.10;99.60;;;;;;5050194;28;20630;-84
2021/06/20 02:02:20;;;;;;;32.40;8.43;;;26.20;99.20;;;;;;5049765;28;20670;-85
2021/06/20 02:04:47;;;;;;;29.43;8.77;;;26.30;99.20;;;;;;5055008;28;20628;-85
2021/06/20 02:07:14;;;;;;;21.80;7.40;;;26.20;99.40;;;;;;5052281;28;20633;-85
2021/06/20 02:09:42;;;;;;;29.00;8.97;;;26.10;99.60;;;;;;5055486;28;21144;-84
2021/06/20 02:12:11;;;;;;;27.57;7.97;;;26.10;99.80;;;;;;5051583;28;20668;-84
2021/06/20 02:14:40;;;;;;;27.20;8.10;;;26.00;99.90;;;;;;5053222;28;20626;-84
2021/06/20 02:17:18;;;;;;;25.13;8.97;;;26.00;99.90;;;;;;5043938;28;20979;-84
2021/06/20 02:19:45;;;;;;;29.23;8.90;;;25.90;99.90;;;;;;5050249;28;20637;-85
2021/06/20 02:22:11;;;;;;;34.23;9.37;;;25.90;99.90;;;;;;5047216;28;20641;-84
2021/06/20 02:24:38;;;;;;;15.00;7.73;;;25.90;99.90;;;;;;5042989;28;20632;-85
2021/06/20 02:27:09;;;;;;;25.90;7.83;;;25.80;99.90;;;;;;5049686;28;20648;-84
2021/06/20 02:29:36;;;;;;;22.57;8.47;;;25.80;99.90;;;;;;5047899;28;20669;-86
2021/06/20 02:32:04;;;;;;;21.43;8.50;;;25.80;99.90;;;;;;5055816;28;20653;-84
2021/06/20 02:34:31;;;;;;;26.90;7.93;;;25.70;99.90;;;;;;5050125;28;20716;-85
2021/06/20 02:36:58;;;;;;;23.90;8.43;;;25.70;99.90;;;;;;5051995;28;20976;-85
2021/06/20 02:39:25;;;;;;;20.53;7.87;;;25.60;99.90;;;;;;5053103;28;20646;-85
2021/06/20 02:41:51;;;;;;;23.37;8.00;;;25.60;99.90;;;;;;5054574;28;20653;-84
2021/06/20 02:44:18;;;;;;;28.20;8.03;;;25.50;99.90;;;;;;5052512;28;20625;-85
2021/06/20 02:46:46;;;;;;;26.57;8.00;;;25.50;99.90;;;;;;5052038;28;21230;-84
2021/06/20 02:49:14;;;;;;;24.90;8.10;;;25.40;99.90;;;;;;5052766;28;20644;-84
2021/06/20 02:51:43;;;;;;;23.23;8.93;;;25.40;99.90;;;;;;5050664;28;20679;-84
2021/06/20 02:54:10;;;;;;;22.30;8.80;;;25.40;99.90;;;;;;5053230;28;20660;-84
2021/06/20 02:56:37;;;;;;;22.57;8.90;;;25.30;99.90;;;;;;5050696;28;20629;-84
2021/06/20 02:59:04;;;;;;;25.33;8.53;;;25.30;99.90;;;;;;5048562;28;20624;-84
2021/06/20 03:01:31;;;;;;;28.37;9.30;;;25.30;99.90;;;;;;5052935;28;20644;-84
2021/06/20 03:03:58;;;;;;;18.67;8.60;;;25.30;99.90;;;;;;5054056;28;20614;-85
2021/06/20 03:06:26;;;;;;;28.50;9.17;;;25.30;99.90;;;;;;5052599;28;20672;-84
2021/06/20 03:08:53;;;;;;;24.77;8.07;;;25.20;99.90;;;;;;5049527;28;20623;-84
2021/06/20 03:11:21;;;;;;;21.13;7.77;;;25.20;99.90;;;;;;5048234;28;20653;-84
2021/06/20 03:13:47;;;;;;;31.53;8.43;;;25.20;99.90;;;;;;5055417;28;20687;-85
2021/06/20 03:16:15;;;;;;;21.60;7.70;;;25.20;99.90;;;;;;5056379;28;20618;-85
2021/06/20 03:18:42;;;;;;;19.73;7.53;;;25.10;99.90;;;;;;5052119;28;20632;-84
2021/06/20 03:21:09;;;;;;;18.90;8.80;;;25.10;99.90;;;;;;5052930;28;20649;-84
2021/06/20 03:23:37;;;;;;;23.87;8.90;;;25.10;99.90;;;;;;5049696;28;20864;-84
2021/06/20 03:26:05;;;;;;;20.27;8.13;;;25.10;99.90;;;;;;5056995;28;20633;-84
2021/06/20 03:28:31;;;;;;;27.23;7.53;;;25.00;99.90;;;;;;5058394;28;21160;-84
2021/06/20 03:30:58;;;;;;;23.77;8.30;;;24.90;99.90;;;;;;5054126;28;21095;-85
2021/06/20 03:33:25;;;;;;;28.93;9.33;;;24.90;99.90;;;;;;5054354;28;20648;-84
2021/06/20 03:35:51;;;;;;;18.40;8.70;;;24.80;99.90;;;;;;5049924;28;21002;-85
2021/06/20 03:38:18;;;;;;;30.43;9.50;;;24.80;99.90;;;;;;5055054;28;20625;-84
2021/06/20 03:40:46;;;;;;;15.90;8.50;;;24.80;99.90;;;;;;5056639;28;20648;-85
2021/06/20 03:43:13;;;;;;;18.30;8.47;;;24.80;99.90;;;;;;5062196;28;21034;-84
2021/06/20 03:45:40;;;;;;;20.23;8.93;;;24.80;99.90;;;;;;5053875;28;20624;-84
2021/06/20 03:48:07;;;;;;;18.67;8.67;;;24.80;99.90;;;;;;5054719;28;20726;-84
2021/06/20 03:50:34;;;;;;;29.93;8.93;;;24.60;99.90;;;;;;5053113;28;21035;-84
2021/06/20 03:53:04;;;;;;;24.50;8.50;;;24.50;99.90;;;;;;5059856;28;20665;-84
2021/06/20 03:55:31;;;;;;;20.87;8.53;;;24.40;99.90;;;;;;5057406;28;20621;-84
2021/06/20 03:58:01;;;;;;;17.87;8.73;;;24.40;99.90;;;;;;5056295;28;20625;-84
2021/06/20 04:00:28;;;;;;;19.30;9.43;;;24.40;99.90;;;;;;5057882;28;20627;-84
2021/06/20 04:02:55;;;;;;;24.37;9.00;;;24.40;99.90;;;;;;5055695;28;20652;-84
2021/06/20 04:05:21;;;;;;;16.27;8.40;;;24.40;99.90;;;;;;5054581;28;20621;-83
2021/06/20 04:07:48;;;;;;;18.60;9.27;;;24.40;99.90;;;;;;5055780;28;20625;-83
2021/06/20 04:10:15;;;;;;;22.13;9.27;;;24.40;99.90;;;;;;5057908;28;20629;-83
2021/06/20 04:12:42;;;;;;;13.97;9.00;;;24.50;99.90;;;;;;5057463;28;20690;-83
2021/06/20 04:15:11;;;;;;;19.60;10.03;;;24.60;99.90;;;;;;5058732;28;20628;-84
2021/06/20 04:17:38;;;;;;;17.50;7.93;;;24.70;99.90;;;;;;5056905;28;20643;-83
2021/06/20 04:20:07;;;;;;;28.43;8.43;;;24.60;99.90;;;;;;5054908;28;20640;-83
2021/06/20 04:22:34;;;;;;;24.53;8.80;;;24.70;99.90;;;;;;5055949;28;20668;-83
2021/06/20 04:25:01;;;;;;;19.80;8.17;;;24.60;99.90;;;;;;5058833;28;20624;-84
2021/06/20 04:27:28;;;;;;;21.30;7.90;;;24.70;99.90;;;;;;5055694;28;20624;-83
2021/06/20 04:29:54;;;;;;;21.43;8.93;;;24.50;99.90;;;;;;5054971;28;20734;-83
2021/06/20 04:32:22;;;;;;;20.93;8.67;;;24.50;99.90;;;;;;5059066;28;20661;-83
2021/06/20 04:34:49;;;;;;;20.33;8.37;;;24.20;99.90;;;;;;5053551;28;20661;-82
2021/06/20 04:37:16;;;;;;;22.50;9.77;;;24.20;99.90;;;;;;5062664;28;21171;-83
2021/06/20 04:39:43;;;;;;;17.23;7.80;;;24.20;99.90;;;;;;5056040;28;20620;-83
2021/06/20 04:42:10;;;;;;;17.60;7.80;;;24.10;99.90;;;;;;5053446;28;20658;-84
2021/06/20 04:44:43;;;;;;;25.53;8.00;;;24.30;99.90;;;;;;5054069;28;20987;-84
2021/06/20 04:47:11;;;;;;;19.00;7.90;;;24.20;99.90;;;;;;5050294;28;20660;-84
2021/06/20 04:49:39;;;;;;;16.27;7.80;;;24.10;99.90;;;;;;5050852;28;20633;-84
2021/06/20 04:52:07;;;;;;;19.63;7.37;;;24.00;99.90;;;;;;5051529;28;20675;-83
2021/06/20 04:54:36;;;;;;;16.33;7.47;;;24.00;99.90;;;;;;5049895;28;20703;-83
2021/06/20 04:57:04;;;;;;;22.43;7.13;;;24.10;99.90;;;;;;5052906;28;20621;-84
2021/06/20 04:59:33;;;;;;;19.00;7.20;;;24.10;99.90;;;;;;5051897;28;20611;-84
2021/06/20 05:02:00;;;;;;;15.60;7.37;;;23.90;99.90;;;;;;5052537;28;20637;-83
2021/06/20 05:04:27;;;;;;;13.20;6.50;;;23.90;99.90;;;;;;5051830;28;20598;-83
2021/06/20 05:06:55;;;;;;;13.10;6.67;;;23.90;99.90;;;;;;5056403;28;21256;-84
2021/06/20 05:09:22;;;;;;;18.10;6.67;;;23.90;99.90;;;;;;5058135;28;20629;-83
2021/06/20 05:11:48;;;;;;;17.30;7.77;;;24.00;99.90;;;;;;5053965;28;20645;-83
2021/06/20 05:14:15;;;;;;;14.93;6.30;;;24.00;99.90;;;;;;5059970;28;20662;-83
2021/06/20 05:16:42;;;;;;;16.30;6.13;;;24.00;99.90;;;;;;5052486;28;20649;-83
2021/06/20 05:19:08;;;;;;;17.83;6.47;;;24.00;99.90;;;;;;5055025;28;20722;-83
2021/06/20 05:21:35;;;;;;;15.43;5.53;;;24.00;99.90;;;;;;5059267;28;21016;-83
2021/06/20 05:24:05;;;;;;;15.03;6.03;;;23.90;99.90;;;;;;5054757;28;20617;-83
2021/06/20 05:26:32;;;;;;;14.10;6.00;;;23.90;99.90;;;;;;5055443;28;21266;-84
2021/06/20 05:28:59;;;;;;;21.20;6.73;;;23.90;99.90;;;;;;5054268;28;20637;-84
2021/06/20 05:31:26;;;;;;;15.17;5.80;;;23.90;99.90;;;;;;5057308;28;20653;-84
2021/06/20 05:33:53;;;;;;;12.43;6.20;;;23.90;99.90;;;;;;5055053;28;20788;-84
2021/06/20 05:36:19;;;;;;;17.57;5.40;;;24.00;99.90;;;;;;5053601;28;20613;-85
2021/06/20 05:38:46;;;;;;;22.10;6.60;;;24.10;99.90;;;;;;5051812;28;20664;-84
2021/06/20 05:41:14;;;;;;;12.40;5.33;;;24.10;99.90;;;;;;5050623;28;21324;-84
2021/06/20 05:43:41;;;;;;;13.70;5.00;;;24.20;99.90;;;;;;5051087;28;20625;-84
2021/06/20 05:46:08;;;;;;;16.93;5.87;;;24.30;99.90;;;;;;5048349;28;20638;-84
2021/06/20 05:48:35;;;;;;;12.53;5.43;;;24.40;99.90;;;;;;5054271;28;20641;-84
2021/06/20 05:51:02;;;;;;;15.43;5.73;;;24.60;99.90;;;;;;5053482;28;20667;-84
2021/06/20 05:53:28;;;;;;;12.80;5.23;;;24.70;99.90;;;;;;5048685;28;20661;-84
2021/06/20 05:55:55;;;;;;;14.20;6.40;;;24.60;99.90;;;;;;5051040;28;20629;-84
2021/06/20 05:58:23;;;;;;;14.17;5.20;;;24.80;99.90;;;;;;5051110;28;20626;-84
2021/06/20 06:00:50;;;;;;;11.67;5.50;;;24.70;99.90;;;;;;5049273;28;20685;-84
2021/06/20 06:03:17;;;;;;;12.80;5.50;;;24.60;99.90;;;;;;5053891;28;20634;-84
2021/06/20 06:05:43;;;;;;;12.60;5.43;;;24.60;99.90;;;;;;5050173;28;20638;-83
2021/06/20 06:08:10;;;;;;;10.30;4.90;;;24.60;99.90;;;;;;5052001;28;21122;-84
2021/06/20 06:10:37;;;;;;;13.17;5.70;;;24.60;99.90;;;;;;5052433;28;20629;-85
2021/06/20 06:13:04;;;;;;;10.43;4.63;;;24.70;99.90;;;;;;5052094;28;20625;-84
2021/06/20 06:15:32;;;;;;;10.97;5.33;;;24.80;99.90;;;;;;5050194;28;20649;-84
2021/06/20 06:17:59;;;;;;;14.57;5.33;;;24.70;99.90;;;;;;5053850;28;21184;-96
2021/06/20 06:20:28;;;;;;;12.77;4.70;;;24.70;99.90;;;;;;5057149;28;20765;-95
2021/06/20 06:22:57;;;;;;;14.57;5.80;;;24.80;99.90;;;;;;5054169;28;20764;-95
2021/06/20 06:25:25;;;;;;;14.10;5.10;;;25.00;99.90;;;;;;5059547;28;20617;-94
2021/06/20 06:27:52;;;;;;;11.80;5.10;;;24.90;99.90;;;;;;5057606;28;20653;-94
2021/06/20 06:30:20;;;;;;;15.10;5.80;;;25.10;99.90;;;;;;5062363;28;21027;-95
2021/06/20 06:32:51;;;;;;;14.27;5.03;;;25.20;99.90;;;;;;5060620;28;20633;-96
2021/06/20 06:35:19;;;;;;;9.03;4.60;;;25.30;99.90;;;;;;5061602;28;20681;-95
2021/06/20 06:37:46;;;;;;;18.00;5.57;;;25.40;99.90;;;;;;5058320;28;20649;-95
2021/06/20 06:40:14;;;;;;;8.07;4.50;;;25.30;99.90;;;;;;5059082;28;21072;-95
2021/06/20 06:42:41;;;;;;;9.80;4.80;;;25.30;99.90;;;;;;5062575;28;20633;-96
2021/06/20 06:45:11;;;;;;;9.23;4.67;;;25.40;99.90;;;;;;5073015;28;20621;-96
2021/06/20 06:47:39;;;;;;;13.43;5.40;;;25.50;99.90;;;;;;5066512;28;20656;-94
2021/06/20 06:50:10;;;;;;;12.07;4.70;;;25.50;99.90;;;;;;5060157;28;20641;-96
2021/06/20 06:55:23;;;;;;;12.53;4.97;;;25.50;99.90;;;;;;5059293;28;20669;-95
2021/06/20 06:57:51;;;;;;;17.53;6.13;;;25.60;99.90;;;;;;5063174;28;20629;-95
2021/06/20 07:00:25;;;;;;;9.63;3.80;;;25.70;99.90;;;;;;5060508;28;20656;-94
2021/06/20 07:02:54;;;;;;;10.07;5.00;;;25.70;99.90;;;;;;5066257;28;20658;-95
2021/06/20 07:05:26;;;;;;;11.43;5.27;;;25.80;99.90;;;;;;5060697;28;20663;-95
2021/06/20 07:07:55;;;;;;;9.80;4.50;;;25.80;99.90;;;;;;5055539;28;20661;-95
2021/06/20 07:10:28;;;;;;;10.77;5.77;;;25.80;99.90;;;;;;5060174;28;21019;-95
2021/06/20 07:12:58;;;;;;;8.50;4.60;;;25.90;99.90;;;;;;5059791;28;20645;-95
2021/06/20 07:15:26;;;;;;;7.47;4.97;;;25.80;99.90;;;;;;5056561;28;21249;-95
2021/06/20 07:17:55;;;;;;;9.10;4.10;;;25.60;99.90;;;;;;5057112;28;20987;-95
2021/06/20 07:20:30;;;;;;;9.03;4.77;;;25.70;99.90;;;;;;5057821;28;20667;-94
2021/06/20 07:22:58;;;;;;;12.90;4.50;;;25.70;99.90;;;;;;5061892;28;20629;-95
2021/06/20 07:25:28;;;;;;;11.20;4.93;;;25.50;99.90;;;;;;5059895;28;20748;-95
2021/06/20 07:27:55;;;;;;;9.67;4.47;;;25.50;99.90;;;;;;5058458;28;20693;-95
2021/06/20 07:30:28;;;;;;;8.47;4.23;;;25.50;99.90;;;;;;5056487;28;20698;-95
2021/06/20 07:32:57;;;;;;;9.93;4.23;;;25.70;99.90;;;;;;5060799;28;20654;-95
2021/06/20 07:35:36;;;;;;;15.63;5.10;;;25.60;99.90;;;;;;5059964;28;20676;-95
2021/06/20 07:38:18;;;;;;;9.60;4.60;;;25.70;99.90;;;;;;5080153;28;20616;-96
2021/06/20 07:40:52;;;;;;;14.53;4.47;;;25.70;99.90;;;;;;5089745;28;20629;-95
2021/06/20 07:43:36;;;;;;;10.20;5.13;;;25.60;99.90;;;;;;5096475;28;20668;-96
2021/06/20 07:46:23;;;;;;;10.37;4.40;;;25.60;99.90;;;;;;5114574;28;20640;-96
2021/06/20 07:49:10;;;;;;;11.60;3.93;;;25.70;99.90;;;;;;5081585;28;20704;-96
2021/06/20 11:47:45;;;;;;;10.30;4.07;;;29.80;93.30;;;;;;5499502;22;20708;-96
2021/06/20 12:06:06;;;;;;;12.87;4.47;;;31.30;91.90;;;;;;5173333;22;20310;-96
2021/06/20 12:13:40;;;;;;;5.93;3.60;;;30.60;90.80;;;;;;5016616;28;20709;-95
2021/06/20 12:16:09;;;;;;;11.80;4.00;;;31.10;91.00;;;;;;5007711;28;20742;-96
2021/06/20 12:18:57;;;;;;;17.07;4.47;;;31.90;90.50;;;;;;5021822;28;20656;-96
2021/06/20 12:21:27;;;;;;;11.40;4.63;;;32.30;90.20;;;;;;5021929;28;21166;-96
2021/06/20 12:23:54;;;;;;;10.00;4.47;;;32.80;86.90;;;;;;5025813;28;20639;-96
2021/06/20 12:26:33;;;;;;;12.80;4.73;;;32.80;84.60;;;;;;5018783;28;21174;-96
2021/06/20 12:29:10;;;;;;;16.83;4.83;;;33.20;81.20;;;;;;5029360;28;20662;-96
2021/06/20 12:31:54;;;;;;;20.17;5.60;;;33.30;81.00;;;;;;5026226;28;20636;-95
2021/06/20 12:34:55;;;;;;;14.00;4.70;;;33.50;78.20;;;;;;5028157;28;20667;-96
2021/06/20 12:37:24;;;;;;;13.30;5.40;;;33.40;80.30;;;;;;5031778;28;20650;-96
2021/06/20 12:40:43;;;;;;;14.03;5.00;;;33.40;74.90;;;;;;5024767;28;20669;-96
2021/06/20 12:43:16;;;;;;;16.30;4.93;;;33.80;72.40;;;;;;5027562;28;20714;-95
2021/06/20 12:45:44;;;;;;;22.93;6.30;;;33.70;74.00;;;;;;5025473;28;20629;-95
2021/06/20 12:48:21;;;;;;;19.40;6.07;;;34.20;74.30;;;;;;5018957;28;20650;-96
2021/06/20 12:51:15;;;;;;;16.03;5.77;;;34.40;71.60;;;;;;5032437;28;20657;-96
2021/06/20 12:59:03;;;;;;;29.10;6.30;;;34.60;71.10;;;;;;5054420;28;20645;-95
2021/06/20 13:01:32;;;;;;;12.13;5.10;;;34.80;69.40;;;;;;5033890;28;20625;-95
2021/06/20 13:04:22;;;;;;;17.03;5.90;;;34.60;69.30;;;;;;5034230;28;20617;-96
2021/06/20 13:06:55;;;;;;;20.27;6.37;;;34.90;70.70;;;;;;5042428;28;20648;-95
2021/06/20 13:09:22;;;;;;;21.63;6.07;;;35.10;68.40;;;;;;5078983;28;20652;-96
2021/06/20 13:14:44;;;;;;;21.03;6.70;;;35.00;68.90;;;;;;5842004;22;20651;-96
2021/06/20 13:17:13;;;;;;;20.20;6.40;;;35.30;69.70;;;;;;5110931;28;20623;-96
2021/06/20 13:19:42;;;;;;;28.93;7.23;;;35.50;66.90;;;;;;6067826;22;20624;-96
2021/06/20 13:22:13;;;;;;;20.33;5.90;;;35.10;67.00;;;;;;5033398;28;20657;-96
2021/06/20 13:24:43;;;;;;;15.97;5.87;;;35.20;66.30;;;;;;5056809;28;20727;-96
2021/06/20 13:27:10;;;;;;;18.97;6.10;;;35.20;65.10;;;;;;5055609;28;20626;-95
2021/06/20 13:29:37;;;;;;;19.13;5.73;;;34.70;67.50;;;;;;5027136;28;20713;-96
2021/06/20 13:32:08;;;;;;;18.63;6.07;;;35.10;65.90;;;;;;5034476;28;20630;-96
2021/06/20 13:50:31;;;;;;;17.63;5.97;;;34.70;68.70;;;;;;5692523;22;21042;-95
2021/06/20 13:52:58;;;;;;;12.63;5.23;;;34.60;65.40;;;;;;5061619;28;20644;-95
2021/06/20 13:55:26;;;;;;;20.07;6.60;;;35.10;66.70;;;;;;5061916;28;20676;-95
2021/06/20 13:57:53;;;;;;;16.77;6.00;;;35.40;65.30;;;;;;5058857;28;20620;-95
2021/06/20 14:00:21;;;;;;;23.13;7.00;;;36.00;65.20;;;;;;5055175;28;20701;-95
2021/06/20 14:02:49;;;;;;;18.37;5.77;;;36.00;63.40;;;;;;5073182;28;20617;-96
2021/06/20 14:11:03;;;;;;;17.10;5.50;;;36.40;63.20;;;;;;5397787;22;20678;-96
2021/06/20 14:13:30;;;;;;;18.30;6.37;;;36.00;61.40;;;;;;5084219;28;20635;-95
2021/06/20 14:47:20;;;;;;;19.67;7.00;;;33.40;65.90;;;;;;5980251;22;20659;-94
2021/06/20 17:09:31;;;;;;;23.93;7.27;;;28.20;93.40;;;;;;5060580;28;20664;-92
2021/06/20 17:11:58;;;;;;;23.83;7.17;;;27.90;93.40;;;;;;5063232;28;20629;-92
2021/06/20 17:14:25;;;;;;;19.83;6.13;;;27.80;93.70;;;;;;5055552;28;20759;-92
2021/06/20 17:16:52;;;;;;;17.20;5.43;;;27.70;93.80;;;;;;5039756;28;20673;-92
2021/06/20 17:19:19;;;;;;;27.00;6.97;;;27.50;94.40;;;;;;5038036;28;20633;-92
2021/06/20 17:21:46;;;;;;;25.20;7.10;;;27.40;95.80;;;;;;5038645;28;20987;-91
2021/06/20 17:24:14;;;;;;;19.70;7.03;;;27.20;96.80;;;;;;5035033;28;20673;-92
2021/06/20 17:26:44;;;;;;;17.67;6.10;;;27.00;98.10;;;;;;5040799;28;20638;-92
2021/06/20 17:29:11;;;;;;;28.77;7.97;;;27.10;97.50;;;;;;5042105;28;21008;-91
2021/06/20 17:31:40;;;;;;;15.00;6.03;;;27.00;98.50;;;;;;5043691;28;20634;-92
2021/06/20 17:34:07;;;;;;;21.90;7.87;;;26.90;98.60;;;;;;5048113;28;20649;-93
2021/06/20 17:36:34;;;;;;;29.07;6.40;;;26.80;98.80;;;;;;5043902;28;21032;-92
2021/06/20 17:39:02;;;;;;;24.00;6.70;;;26.70;99.90;;;;;;5043391;28;20614;-93
2021/06/20 17:41:30;;;;;;;27.23;7.73;;;26.60;99.90;;;;;;5046016;28;20626;-92
2021/06/20 17:43:59;;;;;;;20.60;8.50;;;26.40;99.90;;;;;;5044024;28;20918;-92
2021/06/20 17:46:27;;;;;;;22.77;7.40;;;26.40;99.90;;;;;;5044272;28;20731;-92
2021/06/20 17:48:54;;;;;;;23.63;8.00;;;26.40;99.90;;;;;;5040933;28;20631;-92
2021/06/20 17:51:21;;;;;;;20.87;7.53;;;26.30;99.90;;;;;;5042006;28;20611;-92
2021/06/20 17:53:48;;;;;;;34.77;8.17;;;26.00;99.90;;;;;;5040870;28;20644;-91
2021/06/20 17:56:16;;;;;;;23.13;7.37;;;25.70;99.90;;;;;;5040871;28;20654;-92
2021/06/20 17:58:43;;;;;;;25.30;8.10;;;25.40;99.90;;;;;;5044008;28;21337;-90
2021/06/20 18:01:12;;;;;;;18.67;7.40;;;25.10;99.90;;;;;;5043134;28;20713;-89
2021/06/20 18:03:41;;;;;;;24.03;8.27;;;24.80;99.90;;;;;;5043850;28;20688;-91
2021/06/20 18:06:10;;;;;;;25.63;7.80;;;24.40;99.90;;;;;;5040625;28;21074;-91
2021/06/20 18:08:37;;;;;;;20.70;8.23;;;24.30;99.90;;;;;;5028735;28;20649;-92
2021/06/20 18:11:06;;;;;;;26.93;8.50;;;24.10;99.90;;;;;;5048139;28;20630;-92
2021/06/20 18:13:34;;;;;;;24.80;7.53;;;23.90;99.90;;;;;;5049169;28;21006;-92
2021/06/20 18:16:01;;;;;;;22.70;6.83;;;23.60;99.90;;;;;;5045398;28;20682;-92
2021/06/20 18:18:30;;;;;;;23.57;8.07;;;23.30;99.90;;;;;;5047109;28;20611;-90
2021/06/20 18:20:57;;;;;;;24.33;7.53;;;23.20;99.90;;;;;;5048835;28;20618;-91
2021/06/20 18:23:24;;;;;;;25.87;8.43;;;23.20;99.90;;;;;;5026389;28;20622;-90
2021/06/20 18:25:52;;;;;;;23.40;9.27;;;23.10;99.90;;;;;;5045826;28;21077;-91
2021/06/20 18:28:19;;;;;;;26.33;8.33;;;23.00;99.90;;;;;;5050672;28;20626;-91
2021/06/20 18:30:46;;;;;;;33.33;6.70;;;22.80;99.90;;;;;;5057215;28;20643;-91
2021/06/20 18:33:14;;;;;;;30.27;9.77;;;22.70;99.90;;;;;;5047186;28;20599;-91
2021/06/20 18:35:44;;;;;;;21.60;8.80;;;22.70;99.90;;;;;;5048726;28;20677;-92
2021/06/20 18:38:11;;;;;;;27.20;10.00;;;22.80;99.90;;;;;;5048025;28;20678;-93
2021/06/20 18:40:39;;;;;;;28.00;9.83;;;23.00;99.90;;;;;;5049488;28;20654;-95
2021/06/20 18:43:10;;;;;;;23.60;10.20;;;22.80;99.90;;;;;;5055377;28;20629;-94
2021/06/20 18:45:38;;;;;;;30.10;9.73;;;22.50;99.90;;;;;;5044540;28;20681;-92
2021/06/20 18:48:06;;;;;;;26.37;8.40;;;22.10;99.90;;;;;;5046346;28;21131;-92
2021/06/20 18:50:34;;;;;;;34.47;8.53;;;21.70;99.90;;;;;;5038590;28;20630;-93
2021/06/20 18:53:03;;;;;;;24.30;9.40;;;21.60;99.90;;;;;;5040986;28;20668;-93
2021/06/20 19:00:57;;;;;;;32.70;10.03;;;21.10;99.90;;;;;;5052702;28;20646;-94
2021/06/20 19:06:28;;;;;;;25.50;9.60;;;20.90;99.90;;;;;;5068062;28;20614;-94
2021/06/20 19:12:49;;;;;;;27.00;9.40;;;20.60;99.90;;;;;;5066956;28;20673;-92
2021/06/20 19:15:55;;;;;;;32.03;9.20;;;20.60;99.90;;;;;;5064694;28;20603;-95
2021/06/20 19:18:54;;;;;;;22.70;8.90;;;20.70;99.90;;;;;;5068514;28;20641;-94
2021/06/20 19:21:54;;;;;;;30.47;9.77;;;20.60;99.90;;;;;;5065704;28;20654;-94
2021/06/20 19:24:51;;;;;;;31.00;9.27;;;20.60;99.90;;;;;;5061192;28;20626;-93
2021/06/20 19:27:58;;;;;;;33.53;9.07;;;20.60;99.90;;;;;;5068625;28;20631;-94
2021/06/20 19:40:04;;;;;;;27.43;10.63;;;20.70;99.90;;;;;;5062778;28;20604;-95
2021/06/20 19:42:47;;;;;;;27.30;9.17;;;20.80;99.90;;;;;;5071279;28;20669;-93
2021/06/20 19:48:56;;;;;;;33.73;9.53;;;20.30;99.90;;;;;;5075082;28;21158;-93
2021/06/20 20:12:20;;;;;;;9.40;3.20;;;17.50;99.90;;;;;;5063520;28;20702;-90
2021/06/20 20:15:04;;;;;;;12.10;3.87;;;17.40;99.90;;;;;;5053262;28;21283;-91
2021/06/20 20:56:05;;;;;;;6.43;2.63;;;17.20;99.90;;;;;;5082120;28;21251;-89
2021/06/20 21:01:16;;;;;;;5.83;2.97;;;17.10;99.90;;;;;;5083942;28;20641;-90
2021/06/20 21:03:43;;;;;;;6.50;3.40;;;17.20;99.90;;;;;;5082042;28;20668;-88
2021/06/20 21:11:39;;;;;;;9.17;2.77;;;17.10;99.90;;;;;;5074344;28;20651;-88
2021/06/20 21:14:23;;;;;;;10.10;3.30;;;17.10;99.90;;;;;;5074336;28;20708;-90
2021/06/20 21:47:37;;;;;;;4.70;2.30;;;16.90;99.90;;;;;;5085159;28;20632;-92
2021/06/20 21:50:29;;;;;;;6.30;2.63;;;17.00;99.90;;;;;;5086625;28;20593;-89
2021/06/20 22:08:45;;;;;;;7.23;2.50;;;16.70;99.90;;;;;;5059636;28;20621;-89
2021/06/20 22:11:13;;;;;;;5.30;2.30;;;16.90;99.90;;;;;;5059439;28;21013;-90
2021/06/20 22:13:40;;;;;;;7.93;2.57;;;16.70;99.90;;;;;;5061011;28;20636;-91
2021/06/20 22:16:08;;;;;;;4.93;2.10;;;16.70;99.90;;;;;;5058393;28;20622;-94
2021/06/20 22:18:35;;;;;;;8.13;2.53;;;16.70;99.90;;;;;;5057862;28;20621;-94
2021/06/20 22:21:02;;;;;;;5.37;2.50;;;16.70;99.90;;;;;;5060039;28;20661;-92
2021/06/20 22:23:30;;;;;;;7.60;2.33;;;16.70;99.90;;;;;;5060698;28;21086;-92
2021/06/20 22:25:59;;;;;;;8.67;3.00;;;16.60;99.90;;;;;;5056374;28;20601;-91
2021/06/20 22:28:26;;;;;;;5.60;2.70;;;16.70;99.90;;;;;;5040552;28;20618;-91
2021/06/20 22:30:53;;;;;;;9.00;2.93;;;16.70;99.90;;;;;;5060376;28;20653;-92
2021/06/20 22:33:24;;;;;;;7.57;2.87;;;16.70;99.90;;;;;;5058981;28;21171;-91
2021/06/20 22:35:51;;;;;;;7.43;2.80;;;16.70;99.90;;;;;;5057185;28;20620;-92
2021/06/20 22:38:19;;;;;;;13.60;3.20;;;16.70;99.90;;;;;;5059412;28;20618;-91
2021/06/20 22:40:46;;;;;;;7.00;3.40;;;16.70;99.90;;;;;;5057775;28;20724;-91
2021/06/20 22:43:15;;;;;;;5.13;2.87;;;16.90;99.90;;;;;;5062075;28;21294;-92
2021/06/20 22:45:42;;;;;;;5.37;2.57;;;16.80;99.90;;;;;;5057010;28;21472;-92
2021/06/20 22:48:10;;;;;;;5.53;2.43;;;16.70;99.90;;;;;;5057134;28;20672;-90
2021/06/20 22:50:37;;;;;;;6.53;2.50;;;16.70;99.90;;;;;;5057861;28;20648;-89